Time;durP1;ratioP1;P1;durP2;ratioP2;P2;SDS_P1;SDS_P2;PMS_P1;PMS_P2;Temp;Humidity;BMP_temperature;BMP_pressure;BME280_temperature;BME280_humidity;BME280_pressure;Samples;Min_cycle;Max_cycle;Signal;HPM_P1;HPM_P2
2021/03/06 00:02:15;;;;;;;0.20;0.10;;;;;;;-2.18;98.62;101826.50;5055977;28;20535;-54
2021/03/06 00:04:41;;;;;;;0.20;0.10;;;;;;;-2.23;98.23;101818.44;5055858;28;20450;-54
2021/03/06 00:07:08;;;;;;;0.20;0.10;;;;;;;-2.18;98.03;101821.28;5055713;28;20467;-54
2021/03/06 00:09:36;;;;;;;0.20;0.10;;;;;;;-2.21;97.76;101829.84;5055094;28;20450;-54
2021/03/06 00:12:03;;;;;;;0.20;0.10;;;;;;;-2.19;97.93;101824.72;5053499;28;20458;-54
2021/03/06 00:14:32;;;;;;;0.20;0.10;;;;;;;-2.32;97.78;101827.56;5055908;28;20461;-54
2021/03/06 00:17:00;;;;;;;0.20;0.10;;;;;;;-2.30;98.13;101831.13;5055449;28;20474;-54
2021/03/06 00:19:28;;;;;;;0.20;0.10;;;;;;;-2.24;97.78;101829.69;5051950;28;20454;-54
2021/03/06 00:21:54;;;;;;;0.20;0.10;;;;;;;-2.37;97.30;101829.91;5055229;28;20499;-54
2021/03/06 00:24:21;;;;;;;0.20;0.10;;;;;;;-2.29;97.11;101825.97;5055790;28;20465;-54
2021/03/06 00:26:47;;;;;;;3.40;3.10;;;;;;;-2.24;97.20;101829.69;5052494;28;20466;-54
2021/03/06 00:29:13;;;;;;;0.20;0.10;;;;;;;-2.36;97.05;101818.69;5047589;28;20458;-53
2021/03/06 00:31:39;;;;;;;0.20;0.10;;;;;;;-2.35;97.03;101825.69;5041653;28;20453;-54
2021/03/06 00:34:06;;;;;;;0.20;0.10;;;;;;;-2.52;97.00;101830.06;5042979;28;20466;-54
2021/03/06 00:36:32;;;;;;;0.20;0.10;;;;;;;-2.43;97.15;101832.25;5040595;28;20812;-51
2021/03/06 00:38:59;;;;;;;0.20;0.10;;;;;;;-2.39;96.80;101834.16;5055063;28;20830;-52
2021/03/06 00:41:25;;;;;;;0.20;0.10;;;;;;;-2.44;96.91;101846.06;5049481;28;20509;-51
2021/03/06 00:43:51;;;;;;;0.20;0.10;;;;;;;-2.48;97.02;101846.72;5047340;28;20967;-51
2021/03/06 00:46:18;;;;;;;0.20;0.10;;;;;;;-2.50;96.63;101853.56;5054553;28;20486;-51
2021/03/06 00:48:44;;;;;;;0.20;0.20;;;;;;;-2.54;96.53;101843.84;5054627;28;20487;-51
2021/03/06 00:51:11;;;;;;;0.20;0.10;;;;;;;-2.05;96.02;101838.41;5054532;28;20482;-51
2021/03/06 00:53:37;;;;;;;0.20;0.10;;;;;;;-2.50;96.03;101840.56;5050096;28;20450;-51
2021/03/06 00:56:05;;;;;;;0.20;0.10;;;;;;;-2.41;96.44;101835.81;5033011;28;20473;-51
2021/03/06 00:58:31;;;;;;;0.30;0.20;;;;;;;-2.55;96.21;101836.84;5031761;28;20453;-51
2021/03/06 01:00:58;;;;;;;0.20;0.10;;;;;;;-2.62;97.24;101843.44;5053022;28;20439;-51
2021/03/06 01:03:25;;;;;;;0.20;0.20;;;;;;;-2.61;97.26;101836.53;5042188;28;21011;-51
2021/03/06 01:05:52;;;;;;;0.20;0.10;;;;;;;-2.70;96.93;101839.59;5040739;28;20530;-51
2021/03/06 01:08:18;;;;;;;0.20;0.10;;;;;;;-2.63;97.09;101838.16;5054438;28;20451;-51
2021/03/06 01:10:45;;;;;;;0.20;0.10;;;;;;;-2.69;96.25;101833.56;5052171;28;20457;-53
2021/03/06 01:13:12;;;;;;;0.20;0.10;;;;;;;-2.86;96.93;101832.72;5043784;28;20492;-53
2021/03/06 01:15:39;;;;;;;0.20;0.10;;;;;;;-2.88;97.11;101831.72;5054318;28;20486;-53
2021/03/06 01:18:07;;;;;;;0.20;0.10;;;;;;;-3.11;98.15;101832.28;5049681;28;20466;-53
2021/03/06 01:20:34;;;;;;;0.20;0.10;;;;;;;-2.81;97.06;101833.84;5053058;28;20562;-53
2021/03/06 01:23:01;;;;;;;0.20;0.10;;;;;;;-3.08;98.54;101829.84;5054572;28;20486;-53
2021/03/06 01:25:28;;;;;;;0.20;0.10;;;;;;;-3.03;97.87;101825.75;5027750;28;20458;-53
2021/03/06 01:27:54;;;;;;;0.20;0.13;;;;;;;-3.19;98.46;101825.78;5054140;28;20461;-53
2021/03/06 01:30:21;;;;;;;0.20;0.10;;;;;;;-3.03;98.54;101825.75;5054436;28;20453;-53
2021/03/06 01:32:47;;;;;;;0.20;0.10;;;;;;;-2.97;98.38;101823.47;5053901;28;20928;-50
2021/03/06 01:35:14;;;;;;;0.20;0.10;;;;;;;-3.24;98.15;101827.28;5040613;28;20481;-51
2021/03/06 01:37:41;;;;;;;0.20;0.10;;;;;;;-2.88;97.80;101821.31;5054042;28;20536;-51
2021/03/06 01:40:15;;;;;;;0.20;0.10;;;;;;;-3.05;98.08;101828.28;5053667;28;20480;-51
2021/03/06 01:42:41;;;;;;;0.20;0.10;;;;;;;-2.86;97.23;101813.63;5053708;28;20498;-51
2021/03/06 01:45:09;;;;;;;0.20;0.10;;;;;;;-2.83;97.44;101826.78;5053984;28;20455;-51
2021/03/06 01:47:36;;;;;;;0.20;0.10;;;;;;;-2.80;97.59;101830.41;5053307;28;20478;-51
2021/03/06 01:50:05;;;;;;;0.20;0.10;;;;;;;-2.90;98.24;101819.47;5051873;28;20447;-51
2021/03/06 01:52:31;;;;;;;0.20;0.10;;;;;;;-3.05;97.64;101822.19;5053648;28;20447;-51
2021/03/06 01:54:57;;;;;;;0.20;0.10;;;;;;;-2.92;96.86;101823.69;5044109;28;20546;-51
2021/03/06 01:57:25;;;;;;;0.20;0.10;;;;;;;-3.16;96.62;101821.63;5046143;28;20470;-51
2021/03/06 01:59:51;;;;;;;0.20;0.10;;;;;;;-3.09;97.68;101822.84;5053251;28;20450;-50
2021/03/06 02:02:18;;;;;;;0.20;0.10;;;;;;;-3.23;97.83;101822.16;5028026;28;20488;-51
2021/03/06 02:04:45;;;;;;;0.20;0.10;;;;;;;-3.35;98.52;101819.78;5052793;28;20447;-51
2021/03/06 02:07:11;;;;;;;0.20;0.10;;;;;;;-3.17;98.90;101824.16;5053133;28;20474;-51
2021/03/06 02:09:37;;;;;;;0.20;0.10;;;;;;;-2.89;98.68;101823.84;5033742;28;20486;-51
2021/03/06 02:12:45;;;;;;;0.20;0.10;;;;;;;-2.95;98.95;101821.84;5046305;28;20445;-51
2021/03/06 02:15:46;;;;;;;0.20;0.10;;;;;;;-2.44;96.78;101823.53;5021485;28;20443;-50
2021/03/06 02:18:22;;;;;;;0.20;0.10;;;;;;;-2.99;97.51;101825.13;5027947;28;20933;-51
2021/03/06 02:21:07;;;;;;;0.20;0.10;;;;;;;-2.98;97.60;101829.50;5024238;28;20446;-51
2021/03/06 02:23:52;;;;;;;0.20;0.10;;;;;;;-3.18;97.92;101832.78;5039741;28;20487;-51
2021/03/06 02:26:44;;;;;;;0.20;0.10;;;;;;;-2.97;96.93;101826.09;5053195;28;20880;-51
2021/03/06 02:29:38;;;;;;;0.20;0.10;;;;;;;-3.00;97.74;101825.94;5029817;28;20458;-51
2021/03/06 02:32:15;;;;;;;0.20;0.10;;;;;;;-3.12;98.16;101825.31;5052760;28;20944;-51
2021/03/06 02:34:47;;;;;;;0.20;0.10;;;;;;;-2.94;97.39;101823.63;5052779;28;20474;-51
2021/03/06 02:37:16;;;;;;;0.20;0.10;;;;;;;-2.80;96.56;101812.19;5052613;28;20470;-51
2021/03/06 02:39:45;;;;;;;1.17;0.73;;;;;;;-2.88;96.90;101823.91;5052849;28;20451;-51
2021/03/06 02:42:15;;;;;;;0.20;0.10;;;;;;;-3.01;97.21;101826.75;5051555;28;20486;-51
2021/03/06 02:44:41;;;;;;;0.20;0.10;;;;;;;-3.07;96.73;101824.72;5039859;28;20436;-51
2021/03/06 02:47:09;;;;;;;0.20;0.10;;;;;;;-3.32;96.88;101839.84;5052488;28;20482;-51
2021/03/06 02:49:35;;;;;;;0.20;0.10;;;;;;;-3.31;97.50;101818.25;5050366;28;20932;-51
2021/03/06 02:52:01;;;;;;;0.20;0.10;;;;;;;-3.20;96.17;101819.69;5052354;28;20443;-51
2021/03/06 02:54:28;;;;;;;0.20;0.10;;;;;;;-3.38;97.23;101831.75;5041972;28;20451;-51
2021/03/06 02:56:54;;;;;;;0.20;0.10;;;;;;;-3.57;98.26;101822.06;5040748;28;20968;-51
2021/03/06 02:59:48;;;;;;;0.20;0.10;;;;;;;-3.46;98.50;101831.34;5052534;28;20497;-50
2021/03/06 03:02:37;;;;;;;0.20;0.20;;;;;;;-3.70;99.27;101833.53;5052248;28;20486;-51
2021/03/06 03:05:27;;;;;;;0.20;0.10;;;;;;;-3.29;97.84;101832.22;5052393;28;20450;-51
2021/03/06 03:08:05;;;;;;;0.20;0.10;;;;;;;-3.43;98.84;101830.59;5052429;28;20451;-51
2021/03/06 03:10:38;;;;;;;0.20;0.10;;;;;;;-3.56;98.69;101831.69;5026176;28;20455;-50
2021/03/06 03:13:20;;;;;;;0.20;0.10;;;;;;;-3.66;98.79;101832.00;5044243;28;21000;-50
2021/03/06 03:15:55;;;;;;;0.20;0.13;;;;;;;-3.74;98.61;101835.88;5035825;28;20455;-51
2021/03/06 03:18:27;;;;;;;0.20;0.10;;;;;;;-3.81;99.51;101833.78;5047392;28;20438;-50
2021/03/06 03:20:56;;;;;;;1.07;1.07;;;;;;;-3.86;99.98;101836.09;5052086;28;20442;-50
2021/03/06 03:23:32;;;;;;;0.20;0.10;;;;;;;-3.87;99.62;101830.00;5039427;28;20887;-50
2021/03/06 03:26:04;;;;;;;0.20;0.10;;;;;;;-3.80;98.71;101844.25;5032141;28;20495;-51
2021/03/06 03:28:32;;;;;;;0.20;0.10;;;;;;;-3.84;98.53;101844.88;5017386;28;20522;-52
2021/03/06 03:31:00;;;;;;;0.60;0.60;;;;;;;-3.85;99.87;101839.59;5021261;28;20519;-52
2021/03/06 03:33:28;;;;;;;0.20;0.10;;;;;;;-3.59;98.92;101839.28;5034475;28;20474;-52
2021/03/06 03:35:54;;;;;;;0.20;0.10;;;;;;;-3.80;99.49;101846.84;5052230;28;20478;-51
2021/03/06 03:38:22;;;;;;;0.20;0.10;;;;;;;-3.67;100.00;101840.59;5051915;28;21006;-52
2021/03/06 03:40:49;;;;;;;0.20;0.10;;;;;;;-3.89;99.87;101851.53;5042503;28;20451;-51
2021/03/06 03:43:16;;;;;;;0.20;0.10;;;;;;;-3.94;100.00;101840.91;5048262;28;20532;-52
2021/03/06 03:45:42;;;;;;;0.20;0.10;;;;;;;-3.89;99.71;101843.72;5051826;28;20488;-52
2021/03/06 03:48:10;;;;;;;0.20;0.10;;;;;;;-3.23;98.87;101842.94;5051873;28;20804;-52
2021/03/06 03:50:36;;;;;;;0.20;0.10;;;;;;;-3.45;99.49;101843.50;5051965;28;20454;-51
2021/03/06 03:53:03;;;;;;;0.20;0.10;;;;;;;-3.42;99.77;101841.09;5038387;28;20450;-52
2021/03/06 03:55:30;;;;;;;0.20;0.10;;;;;;;-3.37;99.34;101846.53;5047901;28;20450;-52
2021/03/06 03:57:56;;;;;;;0.20;0.10;;;;;;;-3.38;98.79;101845.63;5051985;28;20577;-52
2021/03/06 04:00:23;;;;;;;0.20;0.10;;;;;;;-3.46;98.34;101846.03;5051834;28;20454;-51
2021/03/06 04:02:50;;;;;;;0.20;0.10;;;;;;;-3.29;98.24;101838.34;5038205;28;20831;-51
2021/03/06 04:05:16;;;;;;;0.20;0.10;;;;;;;-3.35;98.01;101845.78;5041769;28;20468;-52
2021/03/06 04:08:00;;;;;;;0.20;0.10;;;;;;;-3.63;98.63;101850.34;5045125;28;20471;-52
2021/03/06 04:10:28;;;;;;;0.30;0.30;;;;;;;-3.82;97.89;101850.16;5044579;28;20927;-51
2021/03/06 04:12:55;;;;;;;0.20;0.10;;;;;;;-3.98;98.72;101846.72;5051675;28;20446;-52
2021/03/06 04:15:23;;;;;;;0.20;0.10;;;;;;;-3.93;100.00;101852.19;5051943;28;20458;-51
2021/03/06 04:17:50;;;;;;;0.20;0.10;;;;;;;-4.19;99.27;101851.63;5036294;28;20471;-52
2021/03/06 04:20:20;;;;;;;0.20;0.10;;;;;;;-3.87;100.00;101862.88;5045526;28;20529;-51
2021/03/06 04:22:47;;;;;;;0.20;0.10;;;;;;;-3.99;99.69;101864.81;5044326;28;20487;-51
2021/03/06 04:25:14;;;;;;;0.20;0.10;;;;;;;-3.85;100.00;101853.47;5045118;28;20940;-51
2021/03/06 04:27:40;;;;;;;0.20;0.10;;;;;;;-3.58;100.00;101856.66;5039986;28;20470;-52
2021/03/06 04:30:08;;;;;;;0.20;0.10;;;;;;;-3.71;99.02;101855.09;5051706;28;20455;-52
2021/03/06 04:32:36;;;;;;;0.20;0.10;;;;;;;-3.83;99.20;101862.25;5043478;28;20455;-52
2021/03/06 04:35:03;;;;;;;0.20;0.10;;;;;;;-3.96;99.50;101852.91;5047102;28;20469;-51
2021/03/06 04:37:29;;;;;;;0.20;0.10;;;;;;;-3.96;100.00;101854.59;5052143;28;21066;-52
2021/03/06 04:39:56;;;;;;;0.20;0.10;;;;;;;-3.97;100.00;101860.63;5054893;28;20952;-51
2021/03/06 04:42:22;;;;;;;0.20;0.10;;;;;;;-4.17;99.53;101867.28;5045787;28;20494;-52
2021/03/06 04:44:48;;;;;;;0.20;0.10;;;;;;;-3.91;100.00;101860.94;5050776;28;20944;-51
2021/03/06 04:47:15;;;;;;;0.20;0.10;;;;;;;-4.17;99.86;101865.56;5045420;28;20536;-51
2021/03/06 04:49:41;;;;;;;0.20;0.10;;;;;;;-3.95;100.00;101865.06;5046713;28;20450;-52
2021/03/06 04:52:07;;;;;;;0.20;0.10;;;;;;;-4.07;100.00;101879.97;5034883;28;20535;-51
2021/03/06 04:54:34;;;;;;;0.20;0.10;;;;;;;-4.00;100.00;101874.28;5045528;28;20546;-52
2021/03/06 04:57:12;;;;;;;0.20;0.10;;;;;;;-3.95;100.00;101875.47;5035301;28;21023;-52
2021/03/06 04:59:43;;;;;;;0.20;0.10;;;;;;;-3.97;100.00;101877.09;5041377;28;20447;-50
2021/03/06 05:02:10;;;;;;;0.20;0.10;;;;;;;-4.14;100.00;101877.81;5031627;28;20938;-50
2021/03/06 05:04:37;;;;;;;0.20;0.10;;;;;;;-3.96;100.00;101873.69;5038376;28;20811;-50
2021/03/06 05:07:03;;;;;;;0.20;0.10;;;;;;;-4.02;99.71;101878.50;5054620;28;20980;-50
2021/03/06 05:09:29;;;;;;;0.20;0.10;;;;;;;-4.08;99.64;101878.19;5041135;28;20447;-50
2021/03/06 05:11:56;;;;;;;0.20;0.10;;;;;;;-3.83;98.64;101876.97;5054658;28;20550;-50
2021/03/06 05:14:22;;;;;;;0.40;0.40;;;;;;;-4.02;99.23;101869.84;5054566;28;20451;-50
2021/03/06 05:16:49;;;;;;;0.20;0.10;;;;;;;-4.33;99.82;101877.59;5042633;28;20498;-50
2021/03/06 05:19:15;;;;;;;0.20;0.10;;;;;;;-4.09;100.00;101878.09;5048232;28;20469;-49
2021/03/06 05:21:41;;;;;;;0.20;0.10;;;;;;;-4.34;99.87;101871.53;5054327;28;20443;-50
2021/03/06 05:24:07;;;;;;;0.20;0.10;;;;;;;-4.11;100.00;101879.69;5054016;28;20612;-50
2021/03/06 05:26:34;;;;;;;0.20;0.10;;;;;;;-4.24;100.00;101878.13;5041165;28;20851;-50
2021/03/06 05:29:00;;;;;;;0.20;0.10;;;;;;;-4.09;100.00;101880.69;5038868;28;20461;-50
2021/03/06 05:31:27;;;;;;;0.20;0.10;;;;;;;-4.15;100.00;101875.16;5042241;28;20444;-51
2021/03/06 05:33:54;;;;;;;0.20;0.10;;;;;;;-4.04;100.00;101887.03;5047478;28;21009;-50
2021/03/06 05:36:20;;;;;;;0.20;0.10;;;;;;;-4.08;99.54;101893.75;5046051;28;20471;-50
2021/03/06 05:38:46;;;;;;;0.20;0.10;;;;;;;-3.99;99.31;101893.38;5040418;28;20504;-50
2021/03/06 05:41:12;;;;;;;0.20;0.10;;;;;;;-4.09;100.00;101902.38;5054436;28;20470;-50
2021/03/06 05:43:39;;;;;;;0.20;0.10;;;;;;;-4.16;99.97;101897.63;5054085;28;20483;-50
2021/03/06 05:46:06;;;;;;;0.20;0.10;;;;;;;-4.24;98.99;101896.31;5054033;28;20483;-50
2021/03/06 05:48:32;;;;;;;0.20;0.10;;;;;;;-4.31;99.72;101896.75;5053654;28;20522;-50
2021/03/06 05:51:01;;;;;;;0.20;0.10;;;;;;;-4.16;99.15;101897.63;5054010;28;20453;-50
2021/03/06 05:53:30;;;;;;;0.20;0.10;;;;;;;-4.31;98.86;101900.25;5047847;28;20500;-50
2021/03/06 05:55:59;;;;;;;0.20;0.10;;;;;;;-4.30;99.57;101907.22;5033794;28;20490;-49
2021/03/06 05:58:30;;;;;;;0.20;0.10;;;;;;;-4.23;100.00;101893.81;5041972;28;20474;-49
2021/03/06 06:00:58;;;;;;;0.20;0.10;;;;;;;-4.34;99.25;101896.59;5038517;28;20447;-50
2021/03/06 06:03:24;;;;;;;0.20;0.10;;;;;;;-4.50;100.00;101900.00;5042035;28;20517;-50
2021/03/06 06:05:52;;;;;;;0.20;0.10;;;;;;;-4.64;100.00;101901.78;5040130;28;20479;-50
2021/03/06 06:08:19;;;;;;;0.20;0.10;;;;;;;-4.74;100.00;101893.38;5053327;28;20979;-50
2021/03/06 06:10:45;;;;;;;0.20;0.10;;;;;;;-4.47;100.00;101897.56;5040225;28;20514;-50
2021/03/06 06:13:13;;;;;;;0.20;0.10;;;;;;;-4.46;100.00;101894.19;5044278;28;20459;-49
2021/03/06 06:15:39;;;;;;;0.20;0.10;;;;;;;-4.43;100.00;101896.03;5049211;28;20451;-49
2021/03/06 06:18:05;;;;;;;0.20;0.10;;;;;;;-4.67;99.92;101886.03;5053294;28;20508;-50
2021/03/06 06:20:37;;;;;;;0.20;0.10;;;;;;;-4.44;99.98;101884.78;5053219;28;20443;-49
2021/03/06 06:23:16;;;;;;;0.20;0.10;;;;;;;-4.35;100.00;101884.41;5043116;28;20491;-50
2021/03/06 06:25:47;;;;;;;0.20;0.10;;;;;;;-4.26;100.00;101890.09;5051759;28;20994;-50
2021/03/06 06:28:18;;;;;;;0.20;0.10;;;;;;;-4.29;100.00;101895.13;5052830;28;20932;-49
2021/03/06 06:31:10;;;;;;;0.20;0.10;;;;;;;-4.07;100.00;101894.66;5052789;28;20450;-49
2021/03/06 06:33:38;;;;;;;0.20;0.10;;;;;;;-4.30;100.00;101893.34;5052667;28;21017;-49
2021/03/06 06:36:04;;;;;;;0.20;0.10;;;;;;;-3.97;100.00;101886.59;5052945;28;20467;-49
2021/03/06 06:38:43;;;;;;;0.20;0.10;;;;;;;-3.90;100.00;101891.28;5053865;28;20633;-49
2021/03/06 06:41:10;;;;;;;0.20;0.10;;;;;;;-3.32;100.00;101897.94;5039978;28;20452;-49
2021/03/06 06:43:36;;;;;;;0.20;0.10;;;;;;;-3.57;100.00;101910.41;5052394;28;20549;-50
2021/03/06 06:46:03;;;;;;;0.20;0.10;;;;;;;-3.41;100.00;101909.56;5052648;28;20548;-49
2021/03/06 06:48:29;;;;;;;0.20;0.10;;;;;;;-3.46;100.00;101918.78;5040595;28;20446;-49
2021/03/06 06:51:14;;;;;;;3.60;1.13;;;;;;;-3.37;100.00;101915.00;5039287;28;20474;-50
2021/03/06 06:53:40;;;;;;;0.20;0.20;;;;;;;-3.29;100.00;101921.53;5031523;28;20488;-50
2021/03/06 06:56:26;;;;;;;0.20;0.10;;;;;;;-3.36;100.00;101918.50;5052617;28;20477;-50
2021/03/06 06:59:03;;;;;;;0.20;0.10;;;;;;;-2.96;100.00;101920.59;5052238;28;20536;-49
2021/03/06 07:01:33;;;;;;;0.20;0.10;;;;;;;-3.00;100.00;101915.25;5051846;28;20443;-50
2021/03/06 07:04:08;;;;;;;0.30;0.20;;;;;;;-2.90;100.00;101920.91;5039277;28;20527;-49
2021/03/06 07:06:36;;;;;;;0.20;0.10;;;;;;;-2.76;100.00;101918.19;5028142;28;20466;-50
2021/03/06 07:09:11;;;;;;;0.20;0.10;;;;;;;-2.75;100.00;101932.09;5052467;28;20447;-50
2021/03/06 07:11:38;;;;;;;0.20;0.10;;;;;;;-2.50;100.00;101924.75;5052450;28;20459;-50
2021/03/06 07:14:05;;;;;;;0.20;0.10;;;;;;;-2.41;99.17;101937.34;5049679;28;20453;-50
2021/03/06 07:16:54;;;;;;;0.20;0.13;;;;;;;-2.36;100.00;101930.63;5041679;28;20471;-50
2021/03/06 07:19:21;;;;;;;0.20;0.10;;;;;;;-2.27;99.66;101933.72;5046285;28;20451;-50
2021/03/06 07:21:48;;;;;;;0.20;0.10;;;;;;;-2.27;99.37;101933.72;5045157;28;20450;-50
2021/03/06 07:24:16;;;;;;;0.20;0.10;;;;;;;-2.20;99.52;101935.78;5045635;28;21012;-50
2021/03/06 07:26:42;;;;;;;0.20;0.10;;;;;;;-2.03;98.96;101935.75;5019327;28;20542;-50
2021/03/06 07:29:08;;;;;;;0.20;0.10;;;;;;;-1.99;99.08;101940.28;5025324;28;20808;-51
2021/03/06 07:31:38;;;;;;;0.20;0.10;;;;;;;-1.86;99.21;101938.34;5039148;28;20459;-50
2021/03/06 07:34:08;;;;;;;0.20;0.10;;;;;;;-1.91;98.52;101936.34;5027116;28;20485;-50
2021/03/06 07:36:37;;;;;;;0.20;0.10;;;;;;;-1.65;99.17;101938.44;5037818;28;20820;-50
2021/03/06 07:39:05;;;;;;;0.30;0.20;;;;;;;-1.50;98.28;101940.91;5040266;28;20458;-50
2021/03/06 07:41:40;;;;;;;0.40;0.37;;;;;;;-1.41;98.29;101937.81;5050499;28;20886;-50
2021/03/06 07:44:07;;;;;;;0.20;0.10;;;;;;;-1.04;97.45;101940.41;5052050;28;20493;-50
2021/03/06 07:46:39;;;;;;;0.40;0.40;;;;;;;-0.86;97.10;101941.22;5049059;28;20487;-50
2021/03/06 07:49:13;;;;;;;0.20;0.20;;;;;;;-0.89;97.50;101943.69;5029894;28;20444;-50
2021/03/06 07:51:42;;;;;;;0.20;0.10;;;;;;;-0.77;97.47;101943.34;5023393;28;20489;-51
2021/03/06 07:54:16;;;;;;;0.20;0.10;;;;;;;-0.63;97.13;101940.50;5048701;28;20440;-52
2021/03/06 07:56:43;;;;;;;0.20;0.10;;;;;;;-0.46;96.46;101941.22;5025555;28;20474;-51
2021/03/06 07:59:47;;;;;;;0.20;0.10;;;;;;;-0.29;95.65;101936.69;5051725;28;20552;-51
2021/03/06 08:02:29;;;;;;;0.20;0.10;;;;;;;-0.04;95.17;101936.88;5051395;28;20898;-51
2021/03/06 08:04:56;;;;;;;0.20;0.10;;;;;;;0.02;94.59;101938.00;5027407;28;20864;-51
2021/03/06 08:07:44;;;;;;;0.20;0.10;;;;;;;0.12;94.70;101935.78;5051430;28;20502;-51
2021/03/06 08:10:12;;;;;;;0.20;0.10;;;;;;;0.15;95.50;101940.28;5051802;28;20451;-52
2021/03/06 08:12:40;;;;;;;0.20;0.10;;;;;;;0.48;94.56;101951.16;5054040;28;20932;-51
2021/03/06 08:15:24;;;;;;;0.20;0.10;;;;;;;0.50;93.75;101945.16;5055562;28;20790;-51
2021/03/06 08:17:51;;;;;;;0.20;0.10;;;;;;;0.61;92.94;101940.34;5029150;28;20870;-52
2021/03/06 08:20:29;;;;;;;0.20;0.10;;;;;;;0.89;92.88;101947.50;5055288;28;20457;-52
2021/03/06 08:23:18;;;;;;;0.20;0.10;;;;;;;1.27;86.29;101950.66;5055730;28;20536;-51
2021/03/06 08:25:46;;;;;;;0.20;0.10;;;;;;;1.53;85.62;101946.34;5055405;28;20446;-51
2021/03/06 08:28:28;;;;;;;0.20;0.10;;;;;;;1.59;84.14;101951.78;5055290;28;20446;-51
2021/03/06 08:30:55;;;;;;;0.20;0.10;;;;;;;1.72;84.17;101936.53;5030361;28;20447;-51
2021/03/06 08:33:22;;;;;;;0.20;0.10;;;;;;;1.78;83.63;101946.31;5055169;28;20520;-51
2021/03/06 08:35:49;;;;;;;0.20;0.10;;;;;;;1.84;84.28;101941.28;5054884;28;20484;-51
2021/03/06 08:38:26;;;;;;;0.20;0.10;;;;;;;1.86;82.82;101930.84;5055187;28;20508;-51
2021/03/06 08:40:53;;;;;;;0.20;0.10;;;;;;;2.17;83.55;101940.59;5055079;28;20924;-52
2021/03/06 08:43:20;;;;;;;0.20;0.10;;;;;;;2.31;82.41;101937.56;5054844;28;20559;-52
2021/03/06 08:45:46;;;;;;;0.20;0.10;;;;;;;2.46;81.92;101939.78;5054626;28;20963;-52
2021/03/06 08:48:15;;;;;;;0.20;0.20;;;;;;;2.42;79.99;101931.78;5054755;28;20952;-52
2021/03/06 08:50:43;;;;;;;0.20;0.10;;;;;;;2.57;80.55;101929.63;5053949;28;20447;-51
2021/03/06 08:53:13;;;;;;;0.20;0.20;;;;;;;2.54;79.92;101922.53;5054864;28;20446;-51
2021/03/06 08:55:42;;;;;;;0.20;0.10;;;;;;;2.69;80.65;101927.38;5039344;28;20937;-52
2021/03/06 08:58:13;;;;;;;0.20;0.10;;;;;;;2.72;78.99;101930.06;5053330;28;20451;-52
2021/03/06 09:00:47;;;;;;;0.20;0.10;;;;;;;2.89;80.17;101936.75;5054679;28;20451;-52
2021/03/06 09:03:24;;;;;;;0.20;0.10;;;;;;;2.93;78.32;101935.97;5031294;28;20540;-52
2021/03/06 09:06:01;;;;;;;0.20;0.20;;;;;;;2.92;77.54;101933.31;5054539;28;20866;-52
2021/03/06 09:08:27;;;;;;;0.20;0.10;;;;;;;2.94;78.40;101924.63;5054749;28;20446;-52
2021/03/06 09:10:59;;;;;;;0.20;0.10;;;;;;;3.16;78.87;101925.25;5054414;28;20534;-53
2021/03/06 09:13:29;;;;;;;0.20;0.10;;;;;;;3.35;78.36;101922.25;5054554;28;20450;-52
2021/03/06 09:16:01;;;;;;;0.20;0.10;;;;;;;3.23;76.97;101919.28;5054276;28;20467;-52
2021/03/06 09:18:33;;;;;;;1.17;1.17;;;;;;;3.40;77.37;101923.25;5054224;28;20812;-52
2021/03/06 09:21:02;;;;;;;0.20;0.20;;;;;;;3.59;75.64;101927.28;5054246;28;20457;-52
2021/03/06 09:23:35;;;;;;;0.20;0.13;;;;;;;3.40;74.71;101912.75;5051900;28;20870;-52
2021/03/06 09:26:07;;;;;;;0.20;0.20;;;;;;;3.71;76.33;101917.09;5054628;28;20459;-52
2021/03/06 09:28:35;;;;;;;0.20;0.10;;;;;;;3.94;75.04;101915.00;5054577;28;20572;-52
2021/03/06 09:31:16;;;;;;;0.30;0.20;;;;;;;3.79;74.67;101909.38;5054271;28;20898;-52
2021/03/06 09:33:43;;;;;;;0.20;0.10;;;;;;;3.77;73.46;101918.97;5054341;28;20442;-53
2021/03/06 09:36:12;;;;;;;0.20;0.10;;;;;;;3.97;71.41;101907.19;5054453;28;20478;-52
2021/03/06 09:38:55;;;;;;;0.20;0.10;;;;;;;3.96;69.75;101918.56;5055470;28;20505;-50
2021/03/06 09:41:33;;;;;;;0.20;0.10;;;;;;;4.14;70.03;101912.88;5053907;28;20443;-51
2021/03/06 09:44:01;;;;;;;0.20;0.20;;;;;;;4.19;69.80;101916.50;5054403;28;20490;-50
2021/03/06 09:46:31;;;;;;;0.20;0.10;;;;;;;4.16;69.15;101909.44;5053667;28;20483;-51
2021/03/06 09:49:03;;;;;;;0.20;0.10;;;;;;;4.25;69.74;101902.59;5054240;28;20451;-51
2021/03/06 09:51:51;;;;;;;0.40;0.40;;;;;;;4.48;69.80;101901.38;5053874;28;20453;-50
2021/03/06 09:54:21;;;;;;;0.20;0.10;;;;;;;4.39;66.48;101907.34;5049856;28;20447;-51
2021/03/06 09:57:03;;;;;;;0.20;0.10;;;;;;;4.38;66.94;101894.13;5043303;28;20475;-50
2021/03/06 09:59:40;;;;;;;0.20;0.20;;;;;;;4.52;67.15;101904.94;5056504;28;20459;-50
2021/03/06 10:02:10;;;;;;;0.20;0.10;;;;;;;4.55;65.92;101903.31;5052086;28;20500;-50
2021/03/06 10:04:37;;;;;;;0.30;0.10;;;;;;;4.69;64.43;101896.59;5053415;28;20609;-50
2021/03/06 10:07:11;;;;;;;0.20;0.10;;;;;;;4.59;63.67;101901.63;5053387;28;20467;-50
2021/03/06 10:09:38;;;;;;;0.20;0.10;;;;;;;4.74;62.86;101904.56;5053803;28;20459;-50
2021/03/06 10:12:08;;;;;;;0.20;0.20;;;;;;;4.66;62.15;101900.88;5053686;28;20447;-50
2021/03/06 10:14:35;;;;;;;0.20;0.20;;;;;;;4.82;63.18;101892.47;5053926;28;20451;-51
2021/03/06 10:17:09;;;;;;;0.20;0.10;;;;;;;4.93;62.31;101898.81;5053376;28;20550;-51
2021/03/06 10:19:54;;;;;;;0.20;0.10;;;;;;;4.97;61.85;101898.03;5054253;28;20457;-51
2021/03/06 10:22:24;;;;;;;0.20;0.10;;;;;;;5.14;59.79;101895.72;5057169;28;20956;-51
2021/03/06 10:24:58;;;;;;;0.20;0.17;;;;;;;4.97;59.27;101884.88;5054338;28;20494;-50
2021/03/06 10:27:40;;;;;;;0.20;0.10;;;;;;;5.09;59.96;101888.63;5052884;28;20521;-51
2021/03/06 10:30:19;;;;;;;0.20;0.10;;;;;;;5.17;58.92;101892.25;5053368;28;20462;-51
2021/03/06 10:32:55;;;;;;;0.20;0.10;;;;;;;5.20;58.66;101893.19;5054992;28;20473;-51
2021/03/06 10:35:38;;;;;;;0.20;0.10;;;;;;;5.13;58.26;101887.81;5052335;28;20858;-51
2021/03/06 10:38:10;;;;;;;0.30;0.10;;;;;;;5.00;58.95;101887.56;5053142;28;20454;-50
2021/03/06 10:40:47;;;;;;;0.20;0.10;;;;;;;5.09;54.33;101891.25;5053137;28;20442;-51
2021/03/06 10:43:33;;;;;;;0.20;0.20;;;;;;;5.19;53.59;101874.72;5053025;28;20490;-51
2021/03/06 10:46:27;;;;;;;0.20;0.10;;;;;;;5.04;56.73;101880.59;5053117;28;20891;-51
2021/03/06 10:48:59;;;;;;;0.20;0.10;;;;;;;5.05;55.40;101883.25;5034982;28;20447;-51
2021/03/06 10:51:40;;;;;;;0.20;0.10;;;;;;;5.16;56.42;101874.69;5053145;28;20462;-51
2021/03/06 10:54:08;;;;;;;0.20;0.17;;;;;;;5.20;56.20;101868.59;5050444;28;20451;-51
2021/03/06 10:56:35;;;;;;;0.20;0.10;;;;;;;5.49;57.67;101877.94;5038841;28;20471;-51
2021/03/06 10:59:02;;;;;;;0.20;0.10;;;;;;;5.31;57.74;101867.94;5052849;28;20454;-51
2021/03/06 11:01:45;;;;;;;0.20;0.13;;;;;;;5.31;59.09;101880.22;5046220;28;20462;-51
2021/03/06 11:04:35;;;;;;;0.20;0.20;;;;;;;5.42;57.85;101875.16;5047967;28;20493;-51
2021/03/06 11:07:07;;;;;;;0.20;0.10;;;;;;;5.64;56.62;101866.78;5052548;28;20462;-51
2021/03/06 11:09:36;;;;;;;0.20;0.10;;;;;;;5.58;55.19;101867.53;5052440;28;20443;-50
2021/03/06 11:12:16;;;;;;;0.30;0.20;;;;;;;5.32;54.16;101869.72;5053256;28;20493;-51
2021/03/06 11:14:43;;;;;;;0.20;0.17;;;;;;;5.33;54.35;101855.66;5030066;28;20443;-51
2021/03/06 11:17:14;;;;;;;0.20;0.10;;;;;;;5.53;55.55;101871.84;5051928;28;20474;-51
2021/03/06 11:19:42;;;;;;;0.20;0.10;;;;;;;5.62;53.39;101872.03;5052497;28;20447;-51
2021/03/06 11:22:10;;;;;;;0.20;0.20;;;;;;;5.78;55.99;101869.66;5052351;28;20456;-51
2021/03/06 11:24:37;;;;;;;0.30;0.20;;;;;;;6.03;55.70;101865.66;5052169;28;20498;-52
2021/03/06 11:27:04;;;;;;;0.23;0.10;;;;;;;5.98;53.92;101862.94;5052410;28;20466;-52
2021/03/06 11:29:30;;;;;;;0.23;0.10;;;;;;;5.84;55.83;101859.19;5052476;28;20455;-51
2021/03/06 11:31:57;;;;;;;0.30;0.20;;;;;;;5.95;57.26;101849.72;5052464;28;20471;-51
2021/03/06 11:34:24;;;;;;;0.23;0.20;;;;;;;5.96;54.50;101864.69;5052325;28;20439;-51
2021/03/06 11:36:50;;;;;;;0.30;0.20;;;;;;;6.00;54.87;101861.22;5052021;28;20467;-51
2021/03/06 11:39:17;;;;;;;0.30;0.20;;;;;;;6.45;54.45;101853.09;5052556;28;20959;-51
2021/03/06 11:41:43;;;;;;;0.57;0.57;;;;;;;6.12;47.38;101848.22;5052159;28;20450;-51
2021/03/06 11:44:09;;;;;;;0.30;0.10;;;;;;;6.21;49.37;101847.47;5052535;28;20513;-52